sensor_id;sensor_type;location;lat;lon;timestamp;P1;durP1;ratioP1;P2;durP2;ratioP2
41739;SDS011;27422;52.444;13.300;2024-03-06T00:00:35;27.15;;;15.98;;
41739;SDS011;27422;52.444;13.300;2024-03-06T00:03:00;28.05;;;16.83;;
41739;SDS011;27422;52.444;13.300;2024-03-06T00:05:25;28.83;;;17.03;;
41739;SDS011;27422;52.444;13.300;2024-03-06T00:07:50;30.37;;;17.03;;
41739;SDS011;27422;52.444;13.300;2024-03-06T00:10:16;31.80;;;17.42;;
41739;SDS011;27422;52.444;13.300;2024-03-06T00:12:41;33.22;;;16.63;;
41739;SDS011;27422;52.444;13.300;2024-03-06T00:15:07;27.60;;;17.40;;
41739;SDS011;27422;52.444;13.300;2024-03-06T00:17:32;26.88;;;16.42;;
41739;SDS011;27422;52.444;13.300;2024-03-06T00:19:57;29.60;;;16.92;;
41739;SDS011;27422;52.444;13.300;2024-03-06T00:22:23;28.90;;;16.75;;
41739;SDS011;27422;52.444;13.300;2024-03-06T00:24:48;30.02;;;17.63;;
41739;SDS011;27422;52.444;13.300;2024-03-06T00:27:13;28.77;;;17.33;;
41739;SDS011;27422;52.444;13.300;2024-03-06T00:29:38;27.33;;;16.67;;
41739;SDS011;27422;52.444;13.300;2024-03-06T00:32:04;31.58;;;17.25;;
41739;SDS011;27422;52.444;13.300;2024-03-06T00:34:29;29.55;;;18.00;;
41739;SDS011;27422;52.444;13.300;2024-03-06T00:36:55;31.48;;;18.33;;
41739;SDS011;27422;52.444;13.300;2024-03-06T00:39:20;28.00;;;16.90;;
41739;SDS011;27422;52.444;13.300;2024-03-06T00:41:45;27.17;;;16.67;;
41739;SDS011;27422;52.444;13.300;2024-03-06T00:44:10;29.90;;;17.67;;
41739;SDS011;27422;52.444;13.300;2024-03-06T00:46:36;29.08;;;17.40;;
41739;SDS011;27422;52.444;13.300;2024-03-06T00:49:01;27.77;;;16.30;;
41739;SDS011;27422;52.444;13.300;2024-03-06T00:51:27;28.00;;;17.02;;
41739;SDS011;27422;52.444;13.300;2024-03-06T00:53:52;35.50;;;17.55;;
41739;SDS011;27422;52.444;13.300;2024-03-06T00:56:17;32.88;;;18.80;;
41739;SDS011;27422;52.444;13.300;2024-03-06T00:58:43;29.30;;;17.73;;
41739;SDS011;27422;52.444;13.300;2024-03-06T01:01:08;27.10;;;16.90;;
41739;SDS011;27422;52.444;13.300;2024-03-06T01:03:34;29.42;;;16.58;;
41739;SDS011;27422;52.444;13.300;2024-03-06T01:05:59;30.85;;;17.42;;
41739;SDS011;27422;52.444;13.300;2024-03-06T01:08:24;29.05;;;17.15;;
41739;SDS011;27422;52.444;13.300;2024-03-06T01:10:50;30.05;;;17.50;;
41739;SDS011;27422;52.444;13.300;2024-03-06T01:13:16;30.95;;;17.77;;
41739;SDS011;27422;52.444;13.300;2024-03-06T01:15:41;30.10;;;17.48;;
41739;SDS011;27422;52.444;13.300;2024-03-06T01:18:06;31.27;;;19.00;;
41739;SDS011;27422;52.444;13.300;2024-03-06T01:20:31;31.88;;;17.27;;
41739;SDS011;27422;52.444;13.300;2024-03-06T01:22:57;29.27;;;16.92;;
41739;SDS011;27422;52.444;13.300;2024-03-06T01:25:22;32.85;;;18.92;;
41739;SDS011;27422;52.444;13.300;2024-03-06T01:27:48;29.77;;;16.20;;
41739;SDS011;27422;52.444;13.300;2024-03-06T01:30:13;30.83;;;17.42;;
41739;SDS011;27422;52.444;13.300;2024-03-06T01:32:38;30.05;;;17.20;;
41739;SDS011;27422;52.444;13.300;2024-03-06T01:35:04;30.40;;;17.60;;
41739;SDS011;27422;52.444;13.300;2024-03-06T01:37:30;27.90;;;16.73;;
41739;SDS011;27422;52.444;13.300;2024-03-06T01:39:55;28.33;;;17.30;;
41739;SDS011;27422;52.444;13.300;2024-03-06T01:42:21;28.93;;;17.77;;
41739;SDS011;27422;52.444;13.300;2024-03-06T01:44:46;25.45;;;15.98;;
41739;SDS011;27422;52.444;13.300;2024-03-06T01:47:11;27.10;;;16.63;;
41739;SDS011;27422;52.444;13.300;2024-03-06T01:49:36;30.97;;;17.27;;
41739;SDS011;27422;52.444;13.300;2024-03-06T01:52:01;28.75;;;17.30;;
41739;SDS011;27422;52.444;13.300;2024-03-06T01:54:27;29.50;;;16.58;;
41739;SDS011;27422;52.444;13.300;2024-03-06T01:56:52;28.60;;;16.63;;
41739;SDS011;27422;52.444;13.300;2024-03-06T01:59:18;29.08;;;16.48;;
41739;SDS011;27422;52.444;13.300;2024-03-06T02:04:11;26.80;;;15.75;;
41739;SDS011;27422;52.444;13.300;2024-03-06T02:06:40;27.25;;;16.60;;
41739;SDS011;27422;52.444;13.300;2024-03-06T02:09:06;30.50;;;16.85;;
41739;SDS011;27422;52.444;13.300;2024-03-06T02:11:34;27.27;;;15.63;;
41739;SDS011;27422;52.444;13.300;2024-03-06T02:13:59;26.45;;;15.95;;
41739;SDS011;27422;52.444;13.300;2024-03-06T02:16:25;32.22;;;16.75;;
41739;SDS011;27422;52.444;13.300;2024-03-06T02:18:53;28.47;;;16.30;;
41739;SDS011;27422;52.444;13.300;2024-03-06T02:21:22;29.33;;;16.60;;
41739;SDS011;27422;52.444;13.300;2024-03-06T02:23:48;28.10;;;16.70;;
41739;SDS011;27422;52.444;13.300;2024-03-06T02:26:13;28.25;;;16.55;;
41739;SDS011;27422;52.444;13.300;2024-03-06T02:28:39;30.77;;;17.13;;
41739;SDS011;27422;52.444;13.300;2024-03-06T02:31:04;27.42;;;16.98;;
41739;SDS011;27422;52.444;13.300;2024-03-06T02:33:31;28.50;;;16.35;;
41739;SDS011;27422;52.444;13.300;2024-03-06T02:35:58;30.95;;;17.23;;
41739;SDS011;27422;52.444;13.300;2024-03-06T02:38:23;28.38;;;16.65;;
41739;SDS011;27422;52.444;13.300;2024-03-06T02:40:49;30.70;;;17.60;;
41739;SDS011;27422;52.444;13.300;2024-03-06T02:43:15;29.98;;;16.45;;
41739;SDS011;27422;52.444;13.300;2024-03-06T02:45:40;28.25;;;15.98;;
41739;SDS011;27422;52.444;13.300;2024-03-06T02:48:06;34.10;;;18.52;;
41739;SDS011;27422;52.444;13.300;2024-03-06T02:50:31;27.52;;;17.13;;
41739;SDS011;27422;52.444;13.300;2024-03-06T02:52:56;29.67;;;17.00;;
41739;SDS011;27422;52.444;13.300;2024-03-06T02:55:22;27.55;;;16.58;;
41739;SDS011;27422;52.444;13.300;2024-03-06T02:57:48;27.23;;;16.10;;
41739;SDS011;27422;52.444;13.300;2024-03-06T03:00:13;27.47;;;16.57;;
41739;SDS011;27422;52.444;13.300;2024-03-06T03:02:39;27.02;;;16.08;;
41739;SDS011;27422;52.444;13.300;2024-03-06T03:05:04;29.55;;;17.05;;
41739;SDS011;27422;52.444;13.300;2024-03-06T03:07:30;29.65;;;16.95;;
41739;SDS011;27422;52.444;13.300;2024-03-06T03:09:55;31.58;;;17.08;;
41739;SDS011;27422;52.444;13.300;2024-03-06T03:12:20;29.57;;;17.80;;
41739;SDS011;27422;52.444;13.300;2024-03-06T03:14:46;30.13;;;17.48;;
41739;SDS011;27422;52.444;13.300;2024-03-06T03:17:11;32.95;;;18.90;;
41739;SDS011;27422;52.444;13.300;2024-03-06T03:19:37;29.55;;;17.85;;
41739;SDS011;27422;52.444;13.300;2024-03-06T03:22:04;29.70;;;17.25;;
41739;SDS011;27422;52.444;13.300;2024-03-06T03:24:30;31.33;;;19.02;;
41739;SDS011;27422;52.444;13.300;2024-03-06T03:26:55;31.35;;;17.88;;
41739;SDS011;27422;52.444;13.300;2024-03-06T03:29:20;31.25;;;17.58;;
41739;SDS011;27422;52.444;13.300;2024-03-06T03:31:46;32.80;;;18.00;;
41739;SDS011;27422;52.444;13.300;2024-03-06T03:34:11;33.58;;;18.13;;
41739;SDS011;27422;52.444;13.300;2024-03-06T03:36:43;31.33;;;18.40;;
41739;SDS011;27422;52.444;13.300;2024-03-06T03:39:11;32.38;;;18.83;;
41739;SDS011;27422;52.444;13.300;2024-03-06T03:41:45;32.30;;;18.55;;
41739;SDS011;27422;52.444;13.300;2024-03-06T03:44:11;32.80;;;19.30;;
41739;SDS011;27422;52.444;13.300;2024-03-06T03:46:37;30.45;;;18.63;;
41739;SDS011;27422;52.444;13.300;2024-03-06T03:49:02;30.10;;;18.65;;
41739;SDS011;27422;52.444;13.300;2024-03-06T03:51:28;30.63;;;18.35;;
41739;SDS011;27422;52.444;13.300;2024-03-06T03:53:53;30.48;;;18.23;;
41739;SDS011;27422;52.444;13.300;2024-03-06T03:56:18;31.98;;;18.25;;
41739;SDS011;27422;52.444;13.300;2024-03-06T03:58:44;32.35;;;18.52;;
41739;SDS011;27422;52.444;13.300;2024-03-06T04:01:10;27.67;;;16.83;;
41739;SDS011;27422;52.444;13.300;2024-03-06T04:03:36;34.67;;;19.77;;
41739;SDS011;27422;52.444;13.300;2024-03-06T04:06:01;35.65;;;19.17;;
41739;SDS011;27422;52.444;13.300;2024-03-06T04:08:26;29.65;;;18.30;;
41739;SDS011;27422;52.444;13.300;2024-03-06T04:10:52;30.60;;;17.98;;
41739;SDS011;27422;52.444;13.300;2024-03-06T04:13:17;33.63;;;20.00;;
41739;SDS011;27422;52.444;13.300;2024-03-06T04:15:44;30.52;;;17.27;;
41739;SDS011;27422;52.444;13.300;2024-03-06T04:18:09;34.70;;;18.75;;
41739;SDS011;27422;52.444;13.300;2024-03-06T04:20:35;30.95;;;18.15;;
41739;SDS011;27422;52.444;13.300;2024-03-06T04:23:01;33.78;;;18.98;;
41739;SDS011;27422;52.444;13.300;2024-03-06T04:25:26;31.10;;;18.38;;
41739;SDS011;27422;52.444;13.300;2024-03-06T04:27:52;32.70;;;18.65;;
41739;SDS011;27422;52.444;13.300;2024-03-06T04:30:18;29.37;;;17.80;;
41739;SDS011;27422;52.444;13.300;2024-03-06T04:32:44;33.17;;;17.30;;
41739;SDS011;27422;52.444;13.300;2024-03-06T04:35:09;31.67;;;16.50;;
41739;SDS011;27422;52.444;13.300;2024-03-06T04:37:35;31.55;;;17.42;;
41739;SDS011;27422;52.444;13.300;2024-03-06T04:40:00;30.58;;;17.85;;
41739;SDS011;27422;52.444;13.300;2024-03-06T04:42:25;34.67;;;18.27;;
41739;SDS011;27422;52.444;13.300;2024-03-06T04:44:51;29.73;;;18.00;;
41739;SDS011;27422;52.444;13.300;2024-03-06T04:47:16;28.23;;;17.38;;
41739;SDS011;27422;52.444;13.300;2024-03-06T04:49:41;33.83;;;19.13;;
41739;SDS011;27422;52.444;13.300;2024-03-06T04:52:07;32.53;;;16.75;;
41739;SDS011;27422;52.444;13.300;2024-03-06T04:54:34;34.85;;;17.40;;
41739;SDS011;27422;52.444;13.300;2024-03-06T04:56:59;30.70;;;17.75;;
41739;SDS011;27422;52.444;13.300;2024-03-06T04:59:24;29.70;;;18.08;;
41739;SDS011;27422;52.444;13.300;2024-03-06T05:01:51;32.35;;;18.70;;
41739;SDS011;27422;52.444;13.300;2024-03-06T05:04:16;33.15;;;19.85;;
41739;SDS011;27422;52.444;13.300;2024-03-06T05:06:41;30.58;;;17.95;;
41739;SDS011;27422;52.444;13.300;2024-03-06T05:09:07;31.42;;;17.27;;
41739;SDS011;27422;52.444;13.300;2024-03-06T05:11:32;31.75;;;17.67;;
41739;SDS011;27422;52.444;13.300;2024-03-06T05:13:58;28.20;;;17.98;;
41739;SDS011;27422;52.444;13.300;2024-03-06T05:16:24;28.95;;;17.65;;
41739;SDS011;27422;52.444;13.300;2024-03-06T05:18:49;33.10;;;17.52;;
41739;SDS011;27422;52.444;13.300;2024-03-06T05:21:14;30.45;;;16.95;;
41739;SDS011;27422;52.444;13.300;2024-03-06T05:23:40;29.23;;;17.48;;
41739;SDS011;27422;52.444;13.300;2024-03-06T05:26:06;32.83;;;18.33;;
41739;SDS011;27422;52.444;13.300;2024-03-06T05:28:32;32.95;;;18.48;;
41739;SDS011;27422;52.444;13.300;2024-03-06T05:30:57;33.53;;;18.35;;
41739;SDS011;27422;52.444;13.300;2024-03-06T05:33:23;33.50;;;18.80;;
41739;SDS011;27422;52.444;13.300;2024-03-06T05:35:48;30.27;;;17.35;;
41739;SDS011;27422;52.444;13.300;2024-03-06T05:38:13;31.90;;;19.23;;
41739;SDS011;27422;52.444;13.300;2024-03-06T05:40:39;30.05;;;18.65;;
41739;SDS011;27422;52.444;13.300;2024-03-06T05:43:06;34.17;;;19.23;;
41739;SDS011;27422;52.444;13.300;2024-03-06T05:45:31;30.85;;;18.38;;
41739;SDS011;27422;52.444;13.300;2024-03-06T05:47:57;29.98;;;16.75;;
41739;SDS011;27422;52.444;13.300;2024-03-06T05:50:22;33.03;;;17.88;;
41739;SDS011;27422;52.444;13.300;2024-03-06T05:52:48;37.20;;;19.95;;
41739;SDS011;27422;52.444;13.300;2024-03-06T05:55:13;34.28;;;20.15;;
41739;SDS011;27422;52.444;13.300;2024-03-06T05:57:39;34.33;;;19.85;;
41739;SDS011;27422;52.444;13.300;2024-03-06T06:00:04;32.33;;;19.38;;
41739;SDS011;27422;52.444;13.300;2024-03-06T06:02:35;34.53;;;19.75;;
41739;SDS011;27422;52.444;13.300;2024-03-06T06:05:01;31.98;;;18.83;;
41739;SDS011;27422;52.444;13.300;2024-03-06T06:07:26;32.78;;;18.70;;
41739;SDS011;27422;52.444;13.300;2024-03-06T06:09:52;33.10;;;19.23;;
41739;SDS011;27422;52.444;13.300;2024-03-06T06:12:17;35.35;;;19.75;;
41739;SDS011;27422;52.444;13.300;2024-03-06T06:14:42;35.63;;;19.83;;
41739;SDS011;27422;52.444;13.300;2024-03-06T06:17:07;34.33;;;19.97;;
41739;SDS011;27422;52.444;13.300;2024-03-06T06:19:32;31.95;;;19.25;;
41739;SDS011;27422;52.444;13.300;2024-03-06T06:21:58;33.63;;;19.47;;
41739;SDS011;27422;52.444;13.300;2024-03-06T06:24:24;35.97;;;20.45;;
41739;SDS011;27422;52.444;13.300;2024-03-06T06:26:49;34.53;;;20.25;;
41739;SDS011;27422;52.444;13.300;2024-03-06T06:29:15;34.17;;;19.92;;
41739;SDS011;27422;52.444;13.300;2024-03-06T06:31:40;31.37;;;18.80;;
41739;SDS011;27422;52.444;13.300;2024-03-06T06:34:05;32.65;;;19.23;;
41739;SDS011;27422;52.444;13.300;2024-03-06T06:36:31;33.15;;;19.75;;
41739;SDS011;27422;52.444;13.300;2024-03-06T06:38:56;31.52;;;18.85;;
41739;SDS011;27422;52.444;13.300;2024-03-06T06:41:22;31.88;;;18.00;;
41739;SDS011;27422;52.444;13.300;2024-03-06T06:43:49;33.03;;;18.73;;
41739;SDS011;27422;52.444;13.300;2024-03-06T06:46:16;34.70;;;19.98;;
41739;SDS011;27422;52.444;13.300;2024-03-06T06:48:43;35.50;;;19.58;;
41739;SDS011;27422;52.444;13.300;2024-03-06T06:51:08;33.75;;;19.67;;
41739;SDS011;27422;52.444;13.300;2024-03-06T06:53:34;31.98;;;18.73;;
41739;SDS011;27422;52.444;13.300;2024-03-06T06:55:59;35.20;;;19.60;;
41739;SDS011;27422;52.444;13.300;2024-03-06T06:58:24;33.20;;;19.03;;
41739;SDS011;27422;52.444;13.300;2024-03-06T07:00:51;36.50;;;19.20;;
41739;SDS011;27422;52.444;13.300;2024-03-06T07:03:17;32.85;;;18.77;;
41739;SDS011;27422;52.444;13.300;2024-03-06T07:05:42;36.60;;;19.40;;
41739;SDS011;27422;52.444;13.300;2024-03-06T07:08:07;33.75;;;19.45;;
41739;SDS011;27422;52.444;13.300;2024-03-06T07:10:33;39.28;;;19.45;;
41739;SDS011;27422;52.444;13.300;2024-03-06T07:13:00;31.20;;;18.55;;
41739;SDS011;27422;52.444;13.300;2024-03-06T07:15:25;33.00;;;18.98;;
41739;SDS011;27422;52.444;13.300;2024-03-06T07:17:51;32.85;;;18.98;;
41739;SDS011;27422;52.444;13.300;2024-03-06T07:20:16;33.47;;;19.38;;
41739;SDS011;27422;52.444;13.300;2024-03-06T07:22:43;31.63;;;18.50;;
41739;SDS011;27422;52.444;13.300;2024-03-06T07:25:09;32.72;;;18.60;;
41739;SDS011;27422;52.444;13.300;2024-03-06T07:27:34;35.63;;;18.88;;
41739;SDS011;27422;52.444;13.300;2024-03-06T07:30:00;29.77;;;17.77;;
41739;SDS011;27422;52.444;13.300;2024-03-06T07:32:25;29.98;;;18.02;;
41739;SDS011;27422;52.444;13.300;2024-03-06T07:34:50;28.03;;;17.30;;
41739;SDS011;27422;52.444;13.300;2024-03-06T07:37:16;30.98;;;18.30;;
41739;SDS011;27422;52.444;13.300;2024-03-06T07:39:41;31.48;;;16.75;;
41739;SDS011;27422;52.444;13.300;2024-03-06T07:42:06;28.52;;;17.23;;
41739;SDS011;27422;52.444;13.300;2024-03-06T07:44:32;29.48;;;17.40;;
41739;SDS011;27422;52.444;13.300;2024-03-06T07:46:57;29.75;;;17.02;;
41739;SDS011;27422;52.444;13.300;2024-03-06T07:49:22;31.15;;;18.45;;
41739;SDS011;27422;52.444;13.300;2024-03-06T07:51:48;26.25;;;15.38;;
41739;SDS011;27422;52.444;13.300;2024-03-06T07:54:13;26.70;;;16.25;;
41739;SDS011;27422;52.444;13.300;2024-03-06T07:56:38;24.98;;;14.98;;
41739;SDS011;27422;52.444;13.300;2024-03-06T07:59:04;23.77;;;15.20;;
41739;SDS011;27422;52.444;13.300;2024-03-06T08:01:30;22.13;;;14.25;;
41739;SDS011;27422;52.444;13.300;2024-03-06T08:03:55;21.85;;;14.07;;
41739;SDS011;27422;52.444;13.300;2024-03-06T08:06:21;22.33;;;13.52;;
41739;SDS011;27422;52.444;13.300;2024-03-06T08:08:46;20.20;;;13.55;;
41739;SDS011;27422;52.444;13.300;2024-03-06T08:11:13;19.58;;;13.20;;
41739;SDS011;27422;52.444;13.300;2024-03-06T08:13:39;20.83;;;12.82;;
41739;SDS011;27422;52.444;13.300;2024-03-06T08:16:05;18.90;;;12.23;;
41739;SDS011;27422;52.444;13.300;2024-03-06T08:18:31;18.60;;;12.18;;
41739;SDS011;27422;52.444;13.300;2024-03-06T08:20:57;19.05;;;12.25;;
41739;SDS011;27422;52.444;13.300;2024-03-06T08:23:22;17.92;;;11.88;;
41739;SDS011;27422;52.444;13.300;2024-03-06T08:25:48;17.65;;;11.70;;
41739;SDS011;27422;52.444;13.300;2024-03-06T08:28:13;18.20;;;11.75;;
41739;SDS011;27422;52.444;13.300;2024-03-06T08:30:39;18.53;;;11.30;;
41739;SDS011;27422;52.444;13.300;2024-03-06T08:33:04;17.75;;;11.55;;
41739;SDS011;27422;52.444;13.300;2024-03-06T08:35:30;18.25;;;11.80;;
41739;SDS011;27422;52.444;13.300;2024-03-06T08:37:55;16.23;;;10.45;;
41739;SDS011;27422;52.444;13.300;2024-03-06T08:40:20;17.20;;;10.60;;
41739;SDS011;27422;52.444;13.300;2024-03-06T08:42:47;14.90;;;10.10;;
41739;SDS011;27422;52.444;13.300;2024-03-06T08:45:12;16.77;;;10.55;;
41739;SDS011;27422;52.444;13.300;2024-03-06T08:47:39;15.80;;;10.50;;
41739;SDS011;27422;52.444;13.300;2024-03-06T08:50:04;15.77;;;10.57;;
41739;SDS011;27422;52.444;13.300;2024-03-06T08:52:32;14.55;;;10.30;;
41739;SDS011;27422;52.444;13.300;2024-03-06T08:54:59;15.23;;;10.27;;
41739;SDS011;27422;52.444;13.300;2024-03-06T08:57:24;17.30;;;10.07;;
41739;SDS011;27422;52.444;13.300;2024-03-06T08:59:55;12.88;;;9.07;;
41739;SDS011;27422;52.444;13.300;2024-03-06T09:02:21;13.13;;;8.55;;
41739;SDS011;27422;52.444;13.300;2024-03-06T09:04:46;13.45;;;8.13;;
41739;SDS011;27422;52.444;13.300;2024-03-06T09:07:12;12.02;;;7.53;;
41739;SDS011;27422;52.444;13.300;2024-03-06T09:09:37;11.57;;;7.30;;
41739;SDS011;27422;52.444;13.300;2024-03-06T09:12:03;11.27;;;7.32;;
41739;SDS011;27422;52.444;13.300;2024-03-06T09:14:32;10.55;;;7.15;;
41739;SDS011;27422;52.444;13.300;2024-03-06T09:16:57;9.60;;;7.60;;
41739;SDS011;27422;52.444;13.300;2024-03-06T09:19:22;11.52;;;7.60;;
41739;SDS011;27422;52.444;13.300;2024-03-06T09:21:48;11.32;;;7.00;;
41739;SDS011;27422;52.444;13.300;2024-03-06T09:24:13;10.20;;;6.90;;
41739;SDS011;27422;52.444;13.300;2024-03-06T09:26:39;9.80;;;7.00;;
41739;SDS011;27422;52.444;13.300;2024-03-06T09:29:04;9.90;;;6.72;;
41739;SDS011;27422;52.444;13.300;2024-03-06T09:31:29;9.77;;;6.22;;
41739;SDS011;27422;52.444;13.300;2024-03-06T09:33:55;9.45;;;6.50;;
41739;SDS011;27422;52.444;13.300;2024-03-06T09:36:20;9.35;;;6.20;;
41739;SDS011;27422;52.444;13.300;2024-03-06T09:38:46;9.82;;;6.80;;
41739;SDS011;27422;52.444;13.300;2024-03-06T09:41:11;10.23;;;7.10;;
41739;SDS011;27422;52.444;13.300;2024-03-06T09:43:36;9.37;;;6.53;;
41739;SDS011;27422;52.444;13.300;2024-03-06T09:46:02;8.80;;;6.13;;
41739;SDS011;27422;52.444;13.300;2024-03-06T09:48:29;9.55;;;6.22;;
41739;SDS011;27422;52.444;13.300;2024-03-06T09:50:57;11.20;;;6.85;;
41739;SDS011;27422;52.444;13.300;2024-03-06T09:53:25;10.13;;;6.68;;
41739;SDS011;27422;52.444;13.300;2024-03-06T09:55:51;9.38;;;6.05;;
41739;SDS011;27422;52.444;13.300;2024-03-06T09:58:16;9.07;;;5.27;;
41739;SDS011;27422;52.444;13.300;2024-03-06T10:00:41;8.90;;;6.03;;
41739;SDS011;27422;52.444;13.300;2024-03-06T10:03:06;9.23;;;6.22;;
41739;SDS011;27422;52.444;13.300;2024-03-06T10:05:33;12.53;;;7.37;;
41739;SDS011;27422;52.444;13.300;2024-03-06T10:08:00;9.98;;;6.40;;
41739;SDS011;27422;52.444;13.300;2024-03-06T10:10:25;10.27;;;6.93;;
41739;SDS011;27422;52.444;13.300;2024-03-06T10:12:51;11.25;;;7.80;;
41739;SDS011;27422;52.444;13.300;2024-03-06T10:15:17;11.73;;;7.60;;
41739;SDS011;27422;52.444;13.300;2024-03-06T10:17:43;11.38;;;7.30;;
41739;SDS011;27422;52.444;13.300;2024-03-06T10:20:23;11.55;;;7.07;;
41739;SDS011;27422;52.444;13.300;2024-03-06T10:22:52;12.32;;;7.65;;
41739;SDS011;27422;52.444;13.300;2024-03-06T10:25:21;12.57;;;7.97;;
41739;SDS011;27422;52.444;13.300;2024-03-06T10:28:05;12.32;;;7.72;;
41739;SDS011;27422;52.444;13.300;2024-03-06T10:30:32;12.27;;;8.05;;
41739;SDS011;27422;52.444;13.300;2024-03-06T10:32:59;11.43;;;7.70;;
41739;SDS011;27422;52.444;13.300;2024-03-06T10:35:25;10.82;;;7.30;;
41739;SDS011;27422;52.444;13.300;2024-03-06T10:37:51;11.68;;;8.00;;
41739;SDS011;27422;52.444;13.300;2024-03-06T10:40:18;10.32;;;7.13;;
41739;SDS011;27422;52.444;13.300;2024-03-06T10:42:44;9.70;;;7.45;;
41739;SDS011;27422;52.444;13.300;2024-03-06T10:45:10;11.52;;;7.35;;
41739;SDS011;27422;52.444;13.300;2024-03-06T10:47:38;12.65;;;7.40;;
41739;SDS011;27422;52.444;13.300;2024-03-06T10:50:04;10.75;;;7.05;;
41739;SDS011;27422;52.444;13.300;2024-03-06T10:52:33;10.80;;;7.13;;
41739;SDS011;27422;52.444;13.300;2024-03-06T10:54:59;11.48;;;7.00;;
41739;SDS011;27422;52.444;13.300;2024-03-06T10:57:25;9.30;;;6.03;;
41739;SDS011;27422;52.444;13.300;2024-03-06T10:59:50;9.93;;;5.88;;
41739;SDS011;27422;52.444;13.300;2024-03-06T11:02:17;11.38;;;6.50;;
41739;SDS011;27422;52.444;13.300;2024-03-06T11:04:43;10.55;;;6.60;;
41739;SDS011;27422;52.444;13.300;2024-03-06T11:07:08;8.73;;;5.90;;
41739;SDS011;27422;52.444;13.300;2024-03-06T11:09:34;9.02;;;6.28;;
41739;SDS011;27422;52.444;13.300;2024-03-06T11:12:00;12.27;;;6.30;;
41739;SDS011;27422;52.444;13.300;2024-03-06T11:14:25;10.05;;;6.55;;
41739;SDS011;27422;52.444;13.300;2024-03-06T11:19:26;9.05;;;6.03;;
41739;SDS011;27422;52.444;13.300;2024-03-06T11:21:52;8.07;;;5.50;;
41739;SDS011;27422;52.444;13.300;2024-03-06T11:24:18;7.63;;;5.60;;
41739;SDS011;27422;52.444;13.300;2024-03-06T11:26:53;7.93;;;5.70;;
41739;SDS011;27422;52.444;13.300;2024-03-06T11:29:26;7.75;;;5.20;;
41739;SDS011;27422;52.444;13.300;2024-03-06T11:34:17;7.95;;;5.38;;
41739;SDS011;27422;52.444;13.300;2024-03-06T11:36:43;8.43;;;5.30;;
41739;SDS011;27422;52.444;13.300;2024-03-06T11:39:11;8.43;;;6.25;;
41739;SDS011;27422;52.444;13.300;2024-03-06T11:41:49;10.07;;;6.40;;
41739;SDS011;27422;52.444;13.300;2024-03-06T11:44:15;12.38;;;8.35;;
41739;SDS011;27422;52.444;13.300;2024-03-06T11:46:59;9.93;;;7.00;;
41739;SDS011;27422;52.444;13.300;2024-03-06T11:49:26;10.32;;;6.75;;
41739;SDS011;27422;52.444;13.300;2024-03-06T11:51:57;13.02;;;6.78;;
41739;SDS011;27422;52.444;13.300;2024-03-06T11:54:23;10.35;;;7.18;;
41739;SDS011;27422;52.444;13.300;2024-03-06T11:56:50;10.48;;;6.80;;
41739;SDS011;27422;52.444;13.300;2024-03-06T11:59:16;9.73;;;6.20;;
41739;SDS011;27422;52.444;13.300;2024-03-06T12:01:41;9.35;;;6.63;;
41739;SDS011;27422;52.444;13.300;2024-03-06T12:04:06;7.30;;;5.03;;
41739;SDS011;27422;52.444;13.300;2024-03-06T12:06:32;7.93;;;5.07;;
41739;SDS011;27422;52.444;13.300;2024-03-06T12:08:57;7.05;;;5.18;;
41739;SDS011;27422;52.444;13.300;2024-03-06T12:11:23;9.27;;;5.53;;
41739;SDS011;27422;52.444;13.300;2024-03-06T12:13:50;8.80;;;6.07;;
41739;SDS011;27422;52.444;13.300;2024-03-06T12:16:16;9.75;;;6.72;;
41739;SDS011;27422;52.444;13.300;2024-03-06T12:18:41;10.27;;;6.93;;
41739;SDS011;27422;52.444;13.300;2024-03-06T12:21:06;10.35;;;7.28;;
41739;SDS011;27422;52.444;13.300;2024-03-06T12:23:31;10.57;;;6.93;;
41739;SDS011;27422;52.444;13.300;2024-03-06T12:26:04;8.98;;;6.57;;
41739;SDS011;27422;52.444;13.300;2024-03-06T12:28:29;12.23;;;6.95;;
41739;SDS011;27422;52.444;13.300;2024-03-06T12:30:55;11.23;;;7.80;;
41739;SDS011;27422;52.444;13.300;2024-03-06T12:33:20;11.10;;;7.65;;
41739;SDS011;27422;52.444;13.300;2024-03-06T12:35:46;15.93;;;9.95;;
41739;SDS011;27422;52.444;13.300;2024-03-06T12:38:14;14.10;;;10.07;;
41739;SDS011;27422;52.444;13.300;2024-03-06T12:40:40;14.40;;;10.63;;
41739;SDS011;27422;52.444;13.300;2024-03-06T12:43:06;13.57;;;10.80;;
41739;SDS011;27422;52.444;13.300;2024-03-06T12:45:31;13.45;;;10.30;;
41739;SDS011;27422;52.444;13.300;2024-03-06T12:47:56;14.07;;;10.30;;
41739;SDS011;27422;52.444;13.300;2024-03-06T12:50:22;13.07;;;10.20;;
41739;SDS011;27422;52.444;13.300;2024-03-06T12:52:48;12.30;;;9.20;;
41739;SDS011;27422;52.444;13.300;2024-03-06T12:55:13;12.90;;;9.35;;
41739;SDS011;27422;52.444;13.300;2024-03-06T12:57:39;12.13;;;8.85;;
41739;SDS011;27422;52.444;13.300;2024-03-06T13:00:05;10.00;;;7.38;;
41739;SDS011;27422;52.444;13.300;2024-03-06T13:02:39;9.82;;;7.18;;
41739;SDS011;27422;52.444;13.300;2024-03-06T13:05:04;10.40;;;7.15;;
41739;SDS011;27422;52.444;13.300;2024-03-06T13:07:29;9.68;;;6.82;;
41739;SDS011;27422;52.444;13.300;2024-03-06T13:09:54;10.40;;;7.40;;
41739;SDS011;27422;52.444;13.300;2024-03-06T13:12:20;10.83;;;7.47;;
41739;SDS011;27422;52.444;13.300;2024-03-06T13:14:45;10.48;;;7.68;;
41739;SDS011;27422;52.444;13.300;2024-03-06T13:17:10;10.93;;;7.65;;
41739;SDS011;27422;52.444;13.300;2024-03-06T13:19:35;11.80;;;7.93;;
41739;SDS011;27422;52.444;13.300;2024-03-06T13:22:01;13.35;;;7.78;;
41739;SDS011;27422;52.444;13.300;2024-03-06T13:24:26;11.13;;;7.93;;
41739;SDS011;27422;52.444;13.300;2024-03-06T13:26:51;11.17;;;8.00;;
41739;SDS011;27422;52.444;13.300;2024-03-06T13:29:16;11.93;;;7.97;;
41739;SDS011;27422;52.444;13.300;2024-03-06T13:31:42;11.02;;;7.57;;
41739;SDS011;27422;52.444;13.300;2024-03-06T13:34:07;10.82;;;8.05;;
41739;SDS011;27422;52.444;13.300;2024-03-06T13:36:32;11.65;;;8.35;;
41739;SDS011;27422;52.444;13.300;2024-03-06T13:38:58;15.25;;;9.18;;
41739;SDS011;27422;52.444;13.300;2024-03-06T13:41:23;13.13;;;8.57;;
41739;SDS011;27422;52.444;13.300;2024-03-06T13:43:48;14.03;;;8.87;;
41739;SDS011;27422;52.444;13.300;2024-03-06T13:46:13;12.55;;;8.70;;
41739;SDS011;27422;52.444;13.300;2024-03-06T13:48:39;15.55;;;9.63;;
41739;SDS011;27422;52.444;13.300;2024-03-06T13:51:04;13.15;;;9.32;;
41739;SDS011;27422;52.444;13.300;2024-03-06T13:53:30;15.77;;;10.15;;
41739;SDS011;27422;52.444;13.300;2024-03-06T13:55:55;21.02;;;10.75;;
41739;SDS011;27422;52.444;13.300;2024-03-06T13:58:21;19.25;;;11.20;;
41739;SDS011;27422;52.444;13.300;2024-03-06T14:00:46;22.70;;;11.48;;
41739;SDS011;27422;52.444;13.300;2024-03-06T14:03:12;22.30;;;11.35;;
41739;SDS011;27422;52.444;13.300;2024-03-06T14:05:37;17.83;;;10.15;;
41739;SDS011;27422;52.444;13.300;2024-03-06T14:08:04;18.95;;;11.32;;
41739;SDS011;27422;52.444;13.300;2024-03-06T14:10:29;17.20;;;10.40;;
41739;SDS011;27422;52.444;13.300;2024-03-06T14:12:58;18.00;;;10.93;;